Time;durP1;ratioP1;P1;durP2;ratioP2;P2;SDS_P1;SDS_P2;PMS_P1;PMS_P2;Temp;Humidity;BMP_temperature;BMP_pressure;BME280_temperature;BME280_humidity;BME280_pressure;Samples;Min_cycle;Max_cycle;Signal;HPM_P1;HPM_P2
2023/07/10 00:01:00;;;;;;;0.90;0.90;;;19.90;99.90;;;;;;4946843;28;20061;-84
2023/07/10 00:03:28;;;;;;;0.80;0.80;;;19.90;99.90;;;;;;4948923;28;20047;-84
2023/07/10 00:05:58;;;;;;;0.90;0.90;;;19.80;99.90;;;;;;4941248;28;20077;-85
2023/07/10 00:08:23;;;;;;;0.80;0.80;;;19.90;99.90;;;;;;4944336;28;20070;-85
2023/07/10 00:10:50;;;;;;;0.70;0.70;;;19.90;99.90;;;;;;4946303;28;20077;-86
2023/07/10 00:13:21;;;;;;;0.80;0.80;;;20.00;99.90;;;;;;4944571;28;20054;-84
2023/07/10 00:15:48;;;;;;;0.70;0.70;;;20.00;99.90;;;;;;4949838;28;20050;-87
2023/07/10 00:18:16;;;;;;;0.70;0.70;;;19.90;99.90;;;;;;4953456;28;20054;-85
2023/07/10 00:20:42;;;;;;;0.70;0.70;;;19.70;99.90;;;;;;4949985;28;20046;-86
2023/07/10 00:23:08;;;;;;;0.70;0.70;;;19.60;99.90;;;;;;4953099;28;20101;-87
2023/07/10 00:25:35;;;;;;;0.73;0.73;;;19.70;99.90;;;;;;4971133;28;20051;-88
2023/07/10 00:28:01;;;;;;;0.77;0.77;;;19.70;99.90;;;;;;4947489;28;20046;-89
2023/07/10 00:30:27;;;;;;;0.70;0.70;;;19.90;99.90;;;;;;4941588;28;20381;-87
2023/07/10 00:32:54;;;;;;;0.70;0.70;;;19.90;99.90;;;;;;4940318;28;20104;-89
2023/07/10 00:35:20;;;;;;;0.70;0.70;;;19.70;99.90;;;;;;4938161;28;20128;-88
2023/07/10 00:38:01;;;;;;;0.80;0.80;;;19.80;99.90;;;;;;4954746;28;20203;-89
2023/07/10 00:40:31;;;;;;;0.80;0.80;;;19.70;99.90;;;;;;4944182;28;20055;-89
2023/07/10 00:43:21;;;;;;;0.80;0.80;;;19.70;99.90;;;;;;4955455;28;20046;-90
2023/07/10 00:45:49;;;;;;;0.80;0.80;;;19.80;99.90;;;;;;4953762;28;20042;-88
2023/07/10 00:48:35;;;;;;;0.80;0.80;;;19.90;99.90;;;;;;4953346;28;20500;-89
2023/07/10 00:51:20;;;;;;;0.90;0.90;;;19.90;99.90;;;;;;4978257;28;20650;-93
2023/07/10 00:53:59;;;;;;;1.00;1.00;;;19.80;99.90;;;;;;4958014;28;20050;-92
2023/07/10 00:56:33;;;;;;;1.00;1.00;;;19.70;99.90;;;;;;4962364;28;20062;-95
2023/07/10 01:02:51;;;;;;;;;;;;;;;;;;;;;
2023/07/10 01:05:27;;;;;;;1.40;1.40;;;19.70;99.90;;;;;;4963432;28;20050;-95
2023/07/10 01:11:29;;;;;;;1.58;1.48;;;19.80;99.90;;;;;;4939416;29;20191;-92
2023/07/10 01:14:43;;;;;;;1.63;1.53;;;20.00;99.90;;;;;;4917992;29;20048;-91
2023/07/10 01:17:09;;;;;;;1.80;1.70;;;19.90;99.90;;;;;;4882684;29;20048;-93
2023/07/10 02:39:59;;;;;;;1.65;1.55;;;19.60;99.90;;;;;;4849261;29;20045;-88
2023/07/10 03:04:13;;;;;;;1.10;1.10;;;19.70;99.90;;;;;;4854438;29;20061;-95
2023/07/10 03:06:52;;;;;;;;;;;;;;;;;;;;;
2023/07/10 03:17:47;;;;;;;1.10;1.10;;;19.50;99.90;;;;;;4746987;30;20104;-96
2023/07/10 03:24:39;;;;;;;1.00;1.00;;;19.40;99.90;;;;;;4767310;30;20073;-94
2023/07/10 03:40:27;;;;;;;1.00;1.00;;;19.60;99.90;;;;;;5315720;23;20068;-93
2023/07/10 03:43:51;;;;;;;;;;;;;;;;;;;;;
2023/07/10 03:46:45;;;;;;;1.00;1.00;;;19.60;99.90;;;;;;4775325;29;20061;-92
2023/07/10 04:16:17;;;;;;;1.98;1.88;;;19.50;99.90;;;;;;5011664;23;20024;-90
2023/07/10 04:18:44;;;;;;;;;;;19.50;99.90;;;;;;4820061;29;20492;-90
2023/07/10 04:21:15;;;;;;;2.22;2.13;;;19.60;99.90;;;;;;4823813;29;20375;-89
2023/07/10 04:38:43;;;;;;;2.45;2.35;;;19.50;99.90;;;;;;4765952;30;20123;-91
2023/07/10 04:42:13;;;;;;;2.30;2.20;;;19.40;99.90;;;;;;4761891;30;20156;-91
2023/07/10 05:01:28;;;;;;;1.70;1.60;;;19.60;99.90;;;;;;4689929;30;20102;-89
2023/07/10 05:04:16;;;;;;;1.40;1.40;;;19.60;99.90;;;;;;4697657;30;20060;-94
2023/07/10 05:07:02;;;;;;;;;;;;;;;;;;;;;
2023/07/10 05:09:35;;;;;;;1.40;1.40;;;19.60;99.90;;;;;;4733619;30;20101;-88
2023/07/10 05:12:10;;;;;;;1.30;1.30;;;19.60;99.90;;;;;;4750132;30;20063;-91
2023/07/10 05:17:51;;;;;;;1.30;1.30;;;19.70;99.90;;;;;;4778022;29;20061;-92
2023/07/10 05:20:46;;;;;;;1.27;1.27;;;19.60;99.90;;;;;;4821174;29;20058;-93
2023/07/10 05:23:13;;;;;;;1.20;1.20;;;19.50;99.90;;;;;;4817012;29;20058;-92
2023/07/10 05:29:23;;;;;;;1.10;1.10;;;19.40;99.90;;;;;;4791691;29;20083;-93
2023/07/10 05:31:51;;;;;;;1.10;1.10;;;19.20;99.90;;;;;;4831840;29;20056;-90
2023/07/10 05:34:22;;;;;;;1.10;1.10;;;19.20;99.90;;;;;;4821418;29;20092;-90
2023/07/10 05:36:48;;;;;;;1.10;1.10;;;19.20;99.90;;;;;;4822440;29;20134;-93
2023/07/10 05:39:34;;;;;;;1.08;1.08;;;19.20;99.90;;;;;;4803306;29;20133;-90
2023/07/10 05:42:19;;;;;;;1.00;1.00;;;19.10;99.90;;;;;;4817861;29;20700;-93
2023/07/10 05:44:57;;;;;;;;;;;;;;;;;;;;;
2023/07/10 05:47:23;;;;;;;1.00;1.00;;;19.20;99.90;;;;;;4815308;29;20054;-90
2023/07/10 05:49:52;;;;;;;1.00;1.00;;;19.20;99.90;;;;;;4804454;29;20058;-92
2023/07/10 05:52:20;;;;;;;1.00;1.00;;;19.20;99.90;;;;;;4805724;29;20077;-91
2023/07/10 05:54:55;;;;;;;0.95;0.95;;;19.20;99.90;;;;;;4816146;29;20058;-91
2023/07/10 05:57:34;;;;;;;0.90;0.90;;;19.20;99.90;;;;;;4817917;29;20050;-91
2023/07/10 06:00:02;;;;;;;0.90;0.90;;;19.30;99.90;;;;;;4833861;29;20520;-88
2023/07/10 06:02:28;;;;;;;0.85;0.85;;;19.30;99.90;;;;;;4819607;29;20050;-90
2023/07/10 06:04:54;;;;;;;0.80;0.80;;;19.40;99.90;;;;;;4797126;29;20521;-89
2023/07/10 06:07:35;;;;;;;0.80;0.80;;;19.40;99.90;;;;;;4818441;29;20049;-91
2023/07/10 06:10:08;;;;;;;0.70;0.70;;;19.40;99.90;;;;;;4814505;29;20054;-91
2023/07/10 06:12:34;;;;;;;0.70;0.70;;;19.40;99.90;;;;;;4826875;29;20073;-90
2023/07/10 06:14:59;;;;;;;0.70;0.70;;;19.40;99.90;;;;;;4809077;29;20094;-87
2023/07/10 06:17:25;;;;;;;0.80;0.80;;;19.50;99.90;;;;;;4807632;29;20054;-88
2023/07/10 06:19:51;;;;;;;0.80;0.80;;;19.50;99.90;;;;;;4814142;29;20087;-86
2023/07/10 06:22:17;;;;;;;1.08;1.08;;;19.50;99.90;;;;;;4828919;29;20527;-87
2023/07/10 06:24:42;;;;;;;1.13;1.13;;;19.50;99.90;;;;;;4815809;29;20064;-88
2023/07/10 06:27:10;;;;;;;1.10;1.10;;;19.40;99.90;;;;;;4809995;29;20069;-89
2023/07/10 06:29:36;;;;;;;1.10;1.10;;;19.60;99.90;;;;;;4799674;29;20050;-87
2023/07/10 06:32:03;;;;;;;1.20;1.20;;;19.60;99.90;;;;;;4817125;29;20058;-86
2023/07/10 06:34:29;;;;;;;0.70;0.70;;;19.60;99.90;;;;;;4814854;29;20718;-90
2023/07/10 06:36:55;;;;;;;0.80;0.80;;;19.70;99.90;;;;;;4808784;29;20046;-89
2023/07/10 06:39:26;;;;;;;0.80;0.80;;;19.70;99.90;;;;;;4817389;29;20049;-94
2023/07/10 06:41:53;;;;;;;0.70;0.70;;;19.80;99.90;;;;;;4817717;29;20037;-88
2023/07/10 06:44:19;;;;;;;0.70;0.70;;;19.90;99.90;;;;;;4813060;29;20104;-89
2023/07/10 06:46:45;;;;;;;0.70;0.70;;;19.80;99.90;;;;;;4806516;29;20516;-87
2023/07/10 06:49:11;;;;;;;0.70;0.70;;;19.80;99.90;;;;;;4810377;29;20050;-87
2023/07/10 06:51:37;;;;;;;0.70;0.70;;;19.90;99.90;;;;;;4807767;29;20093;-88
2023/07/10 06:54:03;;;;;;;0.60;0.60;;;20.30;99.90;;;;;;4813644;29;20054;-86
2023/07/10 06:56:30;;;;;;;0.60;0.60;;;21.00;99.90;;;;;;4810491;29;20058;-85
2023/07/10 06:58:56;;;;;;;0.60;0.60;;;21.00;99.90;;;;;;4813539;29;20182;-87
2023/07/10 07:01:21;;;;;;;0.60;0.60;;;21.00;99.90;;;;;;4810756;29;20124;-87
2023/07/10 07:03:47;;;;;;;0.60;0.60;;;21.40;99.90;;;;;;4813175;29;20050;-86
2023/07/10 07:06:13;;;;;;;0.50;0.50;;;21.40;99.90;;;;;;4811553;29;20139;-86
2023/07/10 07:08:40;;;;;;;0.55;0.55;;;21.90;99.90;;;;;;4813253;29;20043;-84
2023/07/10 07:11:06;;;;;;;0.60;0.60;;;22.40;99.90;;;;;;4817985;29;20049;-86
2023/07/10 07:13:32;;;;;;;0.57;0.57;;;22.80;99.90;;;;;;4813407;29;20223;-87
2023/07/10 07:15:57;;;;;;;0.50;0.50;;;23.10;99.90;;;;;;4809386;29;20061;-86
2023/07/10 07:18:24;;;;;;;0.50;0.50;;;23.30;99.90;;;;;;4810179;29;20045;-87
2023/07/10 07:20:50;;;;;;;0.50;0.50;;;23.50;99.90;;;;;;4809951;29;20050;-87
2023/07/10 07:23:16;;;;;;;0.50;0.50;;;23.40;99.90;;;;;;4809618;29;20056;-87
2023/07/10 07:25:42;;;;;;;0.50;0.50;;;23.70;99.90;;;;;;4808774;29;20420;-87
2023/07/10 07:28:08;;;;;;;0.50;0.50;;;23.30;99.90;;;;;;4800438;29;20038;-88
2023/07/10 07:30:34;;;;;;;0.50;0.50;;;23.10;99.90;;;;;;4816332;29;20046;-87
2023/07/10 07:33:01;;;;;;;0.50;0.50;;;23.30;99.90;;;;;;4827749;29;20129;-88
2023/07/10 07:35:27;;;;;;;0.50;0.50;;;23.40;99.90;;;;;;4813407;29;20059;-87
2023/07/10 07:37:54;;;;;;;0.50;0.50;;;23.70;99.90;;;;;;4818924;29;20056;-90
2023/07/10 07:40:19;;;;;;;0.60;0.60;;;23.90;99.90;;;;;;4817968;29;20670;-89
2023/07/10 07:42:46;;;;;;;0.50;0.50;;;23.80;99.90;;;;;;4816990;29;20053;-89
2023/07/10 07:45:13;;;;;;;0.50;0.50;;;23.60;99.90;;;;;;4827532;29;20053;-90
2023/07/10 07:47:40;;;;;;;0.50;0.50;;;23.40;99.90;;;;;;4799055;29;20258;-88
2023/07/10 07:50:08;;;;;;;0.30;0.30;;;23.30;99.90;;;;;;4814280;29;20489;-89
2023/07/10 07:52:34;;;;;;;0.70;0.70;;;23.50;99.90;;;;;;4818457;29;20045;-88
2023/07/10 07:55:00;;;;;;;0.50;0.50;;;23.50;99.90;;;;;;4801045;29;20050;-90
2023/07/10 07:57:26;;;;;;;0.50;0.50;;;23.90;99.90;;;;;;4814543;29;20053;-90
2023/07/10 07:59:52;;;;;;;0.50;0.50;;;24.00;99.90;;;;;;4802260;29;20103;-89
2023/07/10 08:02:18;;;;;;;0.40;0.40;;;24.10;99.90;;;;;;4800447;29;20303;-89
2023/07/10 08:04:44;;;;;;;0.45;0.45;;;23.90;99.90;;;;;;4810822;29;20046;-90
2023/07/10 08:07:10;;;;;;;0.30;0.30;;;23.90;99.90;;;;;;4814943;29;20169;-91
2023/07/10 08:09:36;;;;;;;0.50;0.50;;;24.20;99.90;;;;;;4796746;29;20060;-89
2023/07/10 08:12:02;;;;;;;0.30;0.30;;;24.20;99.90;;;;;;4812950;29;20050;-89
2023/07/10 08:14:30;;;;;;;0.50;0.50;;;24.50;99.90;;;;;;4818848;29;20413;-91
2023/07/10 08:17:02;;;;;;;0.47;0.47;;;24.50;99.90;;;;;;4813115;29;20119;-91
2023/07/10 08:19:33;;;;;;;0.30;0.30;;;24.70;99.90;;;;;;4826942;29;20233;-92
2023/07/10 08:22:08;;;;;;;0.30;0.30;;;24.60;99.90;;;;;;4827008;29;20420;-93
2023/07/10 08:24:36;;;;;;;0.50;0.50;;;24.60;99.90;;;;;;4814620;29;20476;-90
2023/07/10 08:27:02;;;;;;;0.30;0.30;;;24.50;99.90;;;;;;4820263;29;20087;-92
2023/07/10 08:29:34;;;;;;;0.30;0.30;;;24.80;99.90;;;;;;4817746;29;20054;-91
2023/07/10 08:32:04;;;;;;;0.30;0.30;;;25.10;99.90;;;;;;4812692;29;20117;-90
2023/07/10 08:34:30;;;;;;;0.35;0.35;;;24.90;99.90;;;;;;4821359;29;20050;-88
2023/07/10 08:37:04;;;;;;;0.30;0.30;;;25.00;99.90;;;;;;4815933;29;20050;-93
2023/07/10 08:39:29;;;;;;;0.30;0.30;;;25.10;99.90;;;;;;4802663;29;20057;-89
2023/07/10 08:42:16;;;;;;;0.38;0.38;;;25.40;99.90;;;;;;4817686;29;20054;-89
2023/07/10 08:44:48;;;;;;;0.30;0.30;;;25.30;99.90;;;;;;4818081;29;20134;-92
2023/07/10 08:47:29;;;;;;;0.30;0.30;;;25.80;99.90;;;;;;4817639;29;20050;-87
2023/07/10 08:50:16;;;;;;;0.30;0.30;;;25.40;99.90;;;;;;4828152;29;20470;-95
2023/07/10 08:52:54;;;;;;;0.30;0.30;;;25.60;99.90;;;;;;4817768;29;20492;-90
2023/07/10 08:55:44;;;;;;;0.30;0.30;;;25.60;99.90;;;;;;4804174;29;20525;-91
2023/07/10 08:58:36;;;;;;;0.30;0.30;;;25.90;99.90;;;;;;4812129;29;20106;-92
2023/07/10 09:01:08;;;;;;;0.30;0.30;;;25.40;99.90;;;;;;4814404;29;20074;-92
2023/07/10 09:03:51;;;;;;;0.30;0.30;;;24.90;99.90;;;;;;4820762;29;20845;-93
2023/07/10 09:06:29;;;;;;;0.30;0.30;;;24.70;99.90;;;;;;4829230;29;20129;-91
2023/07/10 09:08:55;;;;;;;0.30;0.30;;;24.60;99.90;;;;;;4818085;29;20041;-90
2023/07/10 09:11:23;;;;;;;0.30;0.30;;;24.80;99.90;;;;;;4833462;29;20045;-92
2023/07/10 09:14:04;;;;;;;0.30;0.30;;;24.70;99.90;;;;;;4814865;29;20663;-88
2023/07/10 09:16:36;;;;;;;0.30;0.30;;;25.10;99.90;;;;;;4820462;29;20503;-94
2023/07/10 09:19:03;;;;;;;0.30;0.30;;;24.40;99.90;;;;;;4815712;29;20409;-88
2023/07/10 09:21:36;;;;;;;0.40;0.40;;;24.90;99.90;;;;;;4814467;29;20141;-92
2023/07/10 09:24:14;;;;;;;0.30;0.30;;;25.20;99.90;;;;;;4804690;29;20153;-89
2023/07/10 09:26:52;;;;;;;0.30;0.30;;;25.50;99.90;;;;;;4805772;29;20050;-92
2023/07/10 09:29:33;;;;;;;0.30;0.30;;;25.80;99.90;;;;;;4821387;29;20509;-87
2023/07/10 09:32:19;;;;;;;0.30;0.30;;;25.00;99.90;;;;;;4815134;29;20050;-92
2023/07/10 09:35:02;;;;;;;0.30;0.30;;;25.10;99.90;;;;;;4819164;29;20053;-93
2023/07/10 09:37:35;;;;;;;0.30;0.30;;;25.30;99.90;;;;;;4806553;29;20089;-91
2023/07/10 09:40:30;;;;;;;0.30;0.30;;;25.80;99.90;;;;;;4829369;29;20085;-91
2023/07/10 09:43:16;;;;;;;0.30;0.30;;;26.00;99.90;;;;;;4834890;29;20046;-94
2023/07/10 09:45:45;;;;;;;0.30;0.30;;;26.20;99.90;;;;;;4837011;29;20107;-87
2023/07/10 09:48:20;;;;;;;0.30;0.30;;;26.30;99.90;;;;;;4802307;29;20038;-92
2023/07/10 09:51:17;;;;;;;0.30;0.30;;;26.30;99.90;;;;;;4834859;29;20054;-94
2023/07/10 09:53:59;;;;;;;0.30;0.30;;;26.30;99.90;;;;;;4807098;29;20086;-91
2023/07/10 09:56:38;;;;;;;0.30;0.30;;;26.10;99.90;;;;;;4817345;29;20062;-90
2023/07/10 09:59:33;;;;;;;0.30;0.30;;;26.10;99.90;;;;;;4803823;29;20552;-89
2023/07/10 10:02:34;;;;;;;0.30;0.30;;;26.50;99.90;;;;;;4800813;29;20140;-94
2023/07/10 10:05:04;;;;;;;0.30;0.30;;;26.40;99.90;;;;;;4807792;29;20069;-93
2023/07/10 10:07:40;;;;;;;0.30;0.30;;;26.60;99.90;;;;;;4821432;29;20417;-91
2023/07/10 10:10:30;;;;;;;0.30;0.30;;;27.10;99.90;;;;;;4813136;29;20050;-90
2023/07/10 10:13:14;;;;;;;0.30;0.30;;;27.10;99.90;;;;;;4814455;29;20112;-88
2023/07/10 10:15:53;;;;;;;0.30;0.30;;;27.10;99.90;;;;;;4814267;29;20054;-91
2023/07/10 10:18:32;;;;;;;0.30;0.30;;;27.70;99.90;;;;;;4804451;29;20062;-89
2023/07/10 10:21:02;;;;;;;0.30;0.30;;;27.70;99.90;;;;;;4812907;29;20049;-93
2023/07/10 10:23:33;;;;;;;0.30;0.30;;;27.70;99.90;;;;;;4819244;29;20511;-90
2023/07/10 10:26:40;;;;;;;0.30;0.30;;;27.80;99.90;;;;;;4817396;29;20049;-93
2023/07/10 10:29:34;;;;;;;0.30;0.30;;;27.40;99.90;;;;;;4801693;29;20042;-90
2023/07/10 10:32:08;;;;;;;0.30;0.30;;;27.60;99.90;;;;;;4807432;29;20057;-93
2023/07/10 10:35:00;;;;;;;0.30;0.30;;;27.80;99.90;;;;;;4830619;29;20322;-87
2023/07/10 10:37:54;;;;;;;0.30;0.30;;;27.90;99.90;;;;;;4811134;29;20778;-91
2023/07/10 10:40:45;;;;;;;0.30;0.30;;;28.00;99.90;;;;;;4803373;29;20050;-83
2023/07/10 10:43:26;;;;;;;0.20;0.20;;;27.80;99.90;;;;;;4817323;29;20467;-86
2023/07/10 10:45:59;;;;;;;0.30;0.30;;;27.10;99.90;;;;;;4833066;29;20118;-87
2023/07/10 10:48:43;;;;;;;0.30;0.30;;;26.80;99.90;;;;;;4818239;29;20062;-91
2023/07/10 10:51:33;;;;;;;0.30;0.30;;;26.50;99.90;;;;;;4816124;29;20082;-86
2023/07/10 10:54:08;;;;;;;0.30;0.30;;;26.30;99.90;;;;;;4813747;29;20566;-87
2023/07/10 10:56:45;;;;;;;0.30;0.30;;;25.80;99.90;;;;;;4812141;29;20046;-91
2023/07/10 10:59:19;;;;;;;0.30;0.30;;;26.20;99.90;;;;;;4812710;29;20046;-90
2023/07/10 11:01:50;;;;;;;0.30;0.30;;;26.90;99.90;;;;;;4812240;29;20127;-93
2023/07/10 11:04:43;;;;;;;0.30;0.30;;;27.40;99.90;;;;;;4812258;29;20057;-94
2023/07/10 11:07:12;;;;;;;0.30;0.30;;;27.20;99.90;;;;;;4832632;29;20046;-91
2023/07/10 11:09:52;;;;;;;0.30;0.30;;;27.10;99.90;;;;;;4810459;29;20454;-87
2023/07/10 11:12:27;;;;;;;0.25;0.25;;;27.20;99.90;;;;;;4816042;29;20058;-88
2023/07/10 11:15:01;;;;;;;0.30;0.30;;;27.20;99.90;;;;;;4824994;29;20492;-89
2023/07/10 11:17:33;;;;;;;0.30;0.30;;;26.20;99.90;;;;;;4815928;29;20072;-92
2023/07/10 11:19:59;;;;;;;0.30;0.30;;;26.70;99.90;;;;;;4828146;29;20057;-88
2023/07/10 11:22:28;;;;;;;0.30;0.30;;;27.20;99.90;;;;;;4804385;29;20080;-89
2023/07/10 11:24:58;;;;;;;0.30;0.30;;;27.60;99.90;;;;;;4813809;29;20051;-87
2023/07/10 11:27:41;;;;;;;0.30;0.30;;;27.70;99.90;;;;;;4817033;29;20041;-92
2023/07/10 11:30:10;;;;;;;0.30;0.30;;;27.40;99.90;;;;;;4810262;29;20745;-87
2023/07/10 11:33:02;;;;;;;0.30;0.30;;;27.10;99.90;;;;;;4816609;29;20057;-88
2023/07/10 11:35:32;;;;;;;0.22;0.22;;;26.90;99.90;;;;;;4820409;29;20065;-94
2023/07/10 11:38:04;;;;;;;0.30;0.30;;;26.90;99.90;;;;;;4807668;29;20046;-93
2023/07/10 11:40:30;;;;;;;0.35;0.35;;;27.60;99.90;;;;;;4808489;29;20054;-89
2023/07/10 11:43:00;;;;;;;0.30;0.30;;;27.40;99.90;;;;;;4815931;29;20042;-88
2023/07/10 11:45:34;;;;;;;0.20;0.20;;;27.10;99.90;;;;;;4812289;29;20397;-90
2023/07/10 11:48:00;;;;;;;0.30;0.30;;;27.10;99.90;;;;;;4816637;29;20050;-91
2023/07/10 11:50:29;;;;;;;0.30;0.30;;;27.20;99.90;;;;;;4816553;29;20520;-86
2023/07/10 11:53:13;;;;;;;0.30;0.30;;;27.60;99.90;;;;;;4813178;29;20751;-94
2023/07/10 11:56:02;;;;;;;0.30;0.30;;;28.40;99.90;;;;;;4821167;29;20737;-92
2023/07/10 11:58:34;;;;;;;0.30;0.30;;;28.30;99.90;;;;;;4819696;29;20057;-91
2023/07/10 12:01:22;;;;;;;0.30;0.30;;;27.90;99.90;;;;;;4818370;29;20441;-94
2023/07/10 12:03:59;;;;;;;0.30;0.30;;;28.30;99.90;;;;;;4799494;29;20057;-91
2023/07/10 12:06:25;;;;;;;0.30;0.30;;;28.30;99.90;;;;;;4800002;29;20169;-89
2023/07/10 12:08:53;;;;;;;0.30;0.30;;;28.40;99.90;;;;;;4816227;29;20060;-89
2023/07/10 12:11:51;;;;;;;0.30;0.30;;;28.10;99.90;;;;;;4814676;29;20150;-92
2023/07/10 12:14:19;;;;;;;0.30;0.30;;;28.10;99.90;;;;;;4832652;29;20113;-91
2023/07/10 12:17:25;;;;;;;0.30;0.30;;;28.20;99.90;;;;;;4816156;29;20058;-92
2023/07/10 12:19:52;;;;;;;0.30;0.30;;;28.20;99.90;;;;;;4822670;29;20042;-91
2023/07/10 12:22:24;;;;;;;0.30;0.30;;;28.00;99.90;;;;;;4808850;29;20046;-91
2023/07/10 12:25:12;;;;;;;0.30;0.30;;;28.00;99.90;;;;;;4806089;29;20042;-94
2023/07/10 12:27:38;;;;;;;0.30;0.30;;;28.00;99.90;;;;;;4819086;29;20051;-90
2023/07/10 12:30:13;;;;;;;0.30;0.30;;;28.30;99.90;;;;;;4818966;29;20516;-91
2023/07/10 12:32:39;;;;;;;0.30;0.30;;;28.10;99.90;;;;;;4812130;29;20720;-90
2023/07/10 12:35:22;;;;;;;0.30;0.30;;;28.40;99.90;;;;;;4820716;29;20050;-93
2023/07/10 12:37:49;;;;;;;0.30;0.30;;;28.50;99.90;;;;;;4818072;29;20122;-94
2023/07/10 12:40:17;;;;;;;0.30;0.30;;;28.20;99.90;;;;;;4801352;29;20302;-89
2023/07/10 12:42:45;;;;;;;0.30;0.30;;;28.30;99.90;;;;;;4802277;29;20195;-94
2023/07/10 12:45:19;;;;;;;0.30;0.30;;;28.20;99.90;;;;;;4817595;29;20080;-88
2023/07/10 12:47:54;;;;;;;0.30;0.30;;;28.20;99.90;;;;;;4820579;29;20062;-94
2023/07/10 12:50:36;;;;;;;0.30;0.30;;;28.10;99.90;;;;;;4822616;29;20132;-91
2023/07/10 12:53:05;;;;;;;0.30;0.30;;;28.30;99.90;;;;;;4814183;29;20163;-93
2023/07/10 12:55:42;;;;;;;0.30;0.30;;;28.10;99.90;;;;;;4799944;29;20042;-92
2023/07/10 12:58:13;;;;;;;0.30;0.30;;;28.20;99.90;;;;;;4816265;29;20046;-90
2023/07/10 13:00:41;;;;;;;0.30;0.30;;;28.30;99.90;;;;;;4804265;29;20064;-88
2023/07/10 13:03:24;;;;;;;0.28;0.28;;;28.20;99.90;;;;;;4819211;29;20038;-86
2023/07/10 13:05:57;;;;;;;0.30;0.30;;;28.40;99.90;;;;;;4832764;29;20062;-89
2023/07/10 13:08:38;;;;;;;0.30;0.30;;;28.60;99.90;;;;;;4821996;29;20053;-93
2023/07/10 13:11:04;;;;;;;0.30;0.30;;;28.20;99.90;;;;;;4811260;29;20306;-93
2023/07/10 13:13:39;;;;;;;0.30;0.30;;;28.10;99.90;;;;;;4819458;29;20401;-89
2023/07/10 13:16:31;;;;;;;0.30;0.30;;;28.20;99.90;;;;;;4816413;29;20523;-94
2023/07/10 13:18:57;;;;;;;0.30;0.30;;;28.20;99.90;;;;;;4805261;29;20083;-86
2023/07/10 13:21:32;;;;;;;0.30;0.30;;;28.50;99.90;;;;;;4815965;29;20042;-92
2023/07/10 13:23:58;;;;;;;0.30;0.30;;;28.20;99.00;;;;;;4820072;29;20038;-88
2023/07/10 13:26:48;;;;;;;0.30;0.30;;;28.20;98.90;;;;;;4800926;29;20413;-89
2023/07/10 13:29:15;;;;;;;0.30;0.30;;;28.30;98.70;;;;;;4811006;29;20075;-90
2023/07/10 13:31:44;;;;;;;0.30;0.30;;;28.20;99.90;;;;;;4821418;29;20057;-94
2023/07/10 13:34:13;;;;;;;0.28;0.28;;;28.40;99.70;;;;;;4819325;29;20134;-87
2023/07/10 13:36:42;;;;;;;0.30;0.30;;;28.40;99.50;;;;;;4817751;29;20132;-94
2023/07/10 13:39:19;;;;;;;0.30;0.30;;;28.40;99.90;;;;;;4822098;29;20054;-88
2023/07/10 13:41:45;;;;;;;0.30;0.30;;;28.40;98.90;;;;;;4830946;29;20060;-91
2023/07/10 13:44:14;;;;;;;0.22;0.22;;;28.40;99.40;;;;;;4815196;29;20050;-90
2023/07/10 13:46:46;;;;;;;0.30;0.30;;;28.60;99.90;;;;;;4798629;29;20054;-94
2023/07/10 13:49:17;;;;;;;0.30;0.30;;;28.60;99.40;;;;;;4829194;29;20420;-93
2023/07/10 13:51:43;;;;;;;0.30;0.30;;;28.60;99.30;;;;;;4818550;29;20047;-88
2023/07/10 13:54:09;;;;;;;0.20;0.20;;;28.40;97.60;;;;;;4821473;29;20614;-87
2023/07/10 13:56:38;;;;;;;0.20;0.20;;;28.50;99.80;;;;;;4819853;29;20792;-90
2023/07/10 13:59:20;;;;;;;0.30;0.30;;;28.60;99.30;;;;;;4819535;29;20086;-94
2023/07/10 14:05:18;;;;;;;0.30;0.30;;;28.70;97.00;;;;;;4834582;29;20086;-88
2023/07/10 14:07:53;;;;;;;0.30;0.30;;;28.60;97.60;;;;;;4824923;29;20052;-93
2023/07/10 14:10:22;;;;;;;0.30;0.30;;;27.70;95.50;;;;;;4807508;29;20046;-91
2023/07/10 14:12:54;;;;;;;0.30;0.30;;;28.20;98.20;;;;;;4813382;29;20050;-92
2023/07/10 14:15:20;;;;;;;0.30;0.30;;;28.60;96.50;;;;;;4814451;29;20050;-94
2023/07/10 14:17:46;;;;;;;0.30;0.30;;;28.50;96.30;;;;;;4817623;29;20060;-91
2023/07/10 14:20:20;;;;;;;0.30;0.30;;;28.30;95.30;;;;;;4823139;29;20508;-93
2023/07/10 14:22:46;;;;;;;0.30;0.30;;;28.50;96.50;;;;;;4810941;29;20497;-89
2023/07/10 14:25:17;;;;;;;0.30;0.30;;;28.50;96.30;;;;;;4808210;29;20060;-94
2023/07/10 14:27:44;;;;;;;0.30;0.30;;;29.00;97.30;;;;;;4808337;29;20050;-89
2023/07/10 14:30:25;;;;;;;0.30;0.30;;;28.60;96.10;;;;;;4817668;29;20682;-92
2023/07/10 14:32:51;;;;;;;0.30;0.30;;;28.80;97.30;;;;;;4831797;29;20039;-90
2023/07/10 14:35:18;;;;;;;0.30;0.30;;;28.30;94.90;;;;;;4819576;29;20136;-87
2023/07/10 14:37:45;;;;;;;0.30;0.30;;;28.50;95.60;;;;;;4827890;29;20450;-90
2023/07/10 14:40:14;;;;;;;0.30;0.30;;;28.40;96.90;;;;;;4811035;29;20050;-92
2023/07/10 14:42:43;;;;;;;0.30;0.30;;;28.30;93.90;;;;;;4812707;29;20096;-90
2023/07/10 14:45:15;;;;;;;0.30;0.30;;;28.40;97.70;;;;;;4800355;29;20720;-89
2023/07/10 14:47:42;;;;;;;0.25;0.25;;;28.50;96.60;;;;;;4831711;29;20062;-88
2023/07/10 14:50:11;;;;;;;0.30;0.30;;;28.60;97.50;;;;;;4811766;29;20042;-93
2023/07/10 14:52:39;;;;;;;0.30;0.30;;;28.70;97.10;;;;;;4810361;29;20070;-87
2023/07/10 14:55:11;;;;;;;0.30;0.30;;;28.50;97.30;;;;;;4815179;29;20118;-87
2023/07/10 14:57:38;;;;;;;0.30;0.30;;;28.60;97.20;;;;;;4825582;29;20096;-88
2023/07/10 15:00:27;;;;;;;0.30;0.30;;;28.80;97.20;;;;;;4790846;29;20047;-89
2023/07/10 15:02:55;;;;;;;0.30;0.30;;;28.60;98.00;;;;;;4800137;29;20095;-89
2023/07/10 15:05:24;;;;;;;0.30;0.30;;;28.50;97.00;;;;;;4814042;29;20054;-94
2023/07/10 15:07:54;;;;;;;0.25;0.25;;;28.50;97.70;;;;;;4809561;29;20098;-93
2023/07/10 15:10:22;;;;;;;0.30;0.30;;;28.30;98.10;;;;;;4826970;29;20114;-90
2023/07/10 15:12:49;;;;;;;0.30;0.30;;;27.90;96.10;;;;;;4810101;29;20099;-92
2023/07/10 15:15:20;;;;;;;0.30;0.30;;;28.30;97.70;;;;;;4814443;29;20056;-90
2023/07/10 15:17:55;;;;;;;0.30;0.30;;;27.70;97.90;;;;;;4798571;29;20046;-88
2023/07/10 15:20:21;;;;;;;0.30;0.30;;;28.10;97.60;;;;;;4815154;29;20062;-87
2023/07/10 15:22:47;;;;;;;0.30;0.30;;;27.80;96.50;;;;;;4807026;29;20118;-88
2023/07/10 15:25:16;;;;;;;0.40;0.40;;;27.90;98.10;;;;;;4810120;29;20153;-88
2023/07/10 15:27:42;;;;;;;0.20;0.20;;;28.00;98.20;;;;;;4812542;29;20056;-91
2023/07/10 15:30:09;;;;;;;0.30;0.30;;;27.90;97.10;;;;;;4810342;29;20442;-86
2023/07/10 15:32:39;;;;;;;0.30;0.30;;;27.30;98.40;;;;;;4807388;29;20659;-87
2023/07/10 15:35:11;;;;;;;0.30;0.30;;;27.60;97.60;;;;;;4831933;29;20740;-89
2023/07/10 15:37:36;;;;;;;0.30;0.30;;;27.60;98.50;;;;;;4811777;29;20050;-89
2023/07/10 15:40:03;;;;;;;0.30;0.30;;;27.90;97.70;;;;;;4810809;29;20606;-85
2023/07/10 15:42:31;;;;;;;0.28;0.28;;;27.80;98.40;;;;;;4822063;29;20046;-88
2023/07/10 15:44:56;;;;;;;0.30;0.30;;;27.20;98.00;;;;;;4811854;29;20050;-91
2023/07/10 15:47:23;;;;;;;0.30;0.30;;;26.80;97.70;;;;;;4810841;29;20416;-88
2023/07/10 15:49:51;;;;;;;0.30;0.30;;;26.70;97.30;;;;;;4801544;29;20054;-87
2023/07/10 15:52:32;;;;;;;0.22;0.22;;;26.90;97.70;;;;;;4799345;29;20049;-90
2023/07/10 15:55:14;;;;;;;0.30;0.30;;;27.10;97.10;;;;;;4814111;29;20076;-91
2023/07/10 15:57:40;;;;;;;0.30;0.30;;;27.30;97.60;;;;;;4800615;29;20609;-92
2023/07/10 16:00:08;;;;;;;0.30;0.30;;;27.30;96.70;;;;;;4817170;29;20054;-93
2023/07/10 16:02:34;;;;;;;0.30;0.30;;;27.30;96.60;;;;;;4808231;29;20269;-91
2023/07/10 16:05:00;;;;;;;0.30;0.30;;;27.20;97.30;;;;;;4829862;29;20132;-90
2023/07/10 16:07:26;;;;;;;0.30;0.30;;;27.30;97.70;;;;;;4811613;29;20199;-89
2023/07/10 16:09:51;;;;;;;0.30;0.30;;;27.30;96.20;;;;;;4813220;29;20042;-90
2023/07/10 16:12:23;;;;;;;0.30;0.30;;;27.20;97.30;;;;;;4812442;29;20054;-91
2023/07/10 16:14:49;;;;;;;0.30;0.30;;;27.30;97.30;;;;;;4809653;29;20054;-89
2023/07/10 16:17:15;;;;;;;0.30;0.30;;;27.10;96.70;;;;;;4812558;29;20042;-87
2023/07/10 16:19:41;;;;;;;0.30;0.30;;;27.20;97.30;;;;;;4810972;29;20137;-83
2023/07/10 16:22:13;;;;;;;0.30;0.30;;;27.40;97.90;;;;;;4807562;29;20057;-86
2023/07/10 16:24:40;;;;;;;0.30;0.30;;;27.60;97.50;;;;;;4810466;29;20038;-85
2023/07/10 16:27:12;;;;;;;0.30;0.30;;;27.40;96.70;;;;;;4811052;29;20106;-88
2023/07/10 16:29:38;;;;;;;0.30;0.30;;;27.50;96.70;;;;;;4811390;29;20053;-91
2023/07/10 16:32:14;;;;;;;0.30;0.30;;;27.30;96.90;;;;;;4810722;29;20084;-88
2023/07/10 16:34:39;;;;;;;0.30;0.30;;;26.90;96.70;;;;;;4831904;29;20098;-92
2023/07/10 16:37:13;;;;;;;0.30;0.30;;;26.80;96.70;;;;;;4812473;29;20053;-93
2023/07/10 16:39:40;;;;;;;0.30;0.30;;;26.70;96.20;;;;;;4809852;29;20655;-92
2023/07/10 16:42:13;;;;;;;0.30;0.30;;;26.70;96.10;;;;;;4816845;29;21008;-89
2023/07/10 16:44:41;;;;;;;0.40;0.40;;;26.80;96.70;;;;;;4812711;29;20124;-93
2023/07/10 16:47:17;;;;;;;0.30;0.30;;;26.70;97.00;;;;;;4811688;29;20109;-92